GZA weather

CLOSED Yasser Arafat International Airport
Rafah, Rafah Governorate, Palestinian Territory

Public forecast

Using degrees Celsius for public forecast. Weather courtesy of forecast.io.

METAR (pilot weather report)

Report is more than 2 hours old.

Closest report is El Arish International Airport, 24.9 nm (46.1 km) WSW. Retrieved 2019/03/21 02:00 UTC (3 hours ago):

HEAR 210200Z 00000KT 9999 SCT025 14/12 Q1015 NOSIG

TAF (pilot weather forecast)

Forecast is more than 12 hours old.

Closest forecast is El Gora Airport, 13.1 nm (24.2 km) SW. Retrieved 2018/10/31 07:00 UTC (5 months ago):

TAF HEGR 310700Z 3107/0112 34009KT 9999 SCT020 BECMG 3119/3121 VRB03KT CAVOK BECMG 0107/0109 36008KT